sensor_id;sensor_type;location;lat;lon;timestamp;P1;durP1;ratioP1;P2;durP2;ratioP2
47912;SDS011;33676;51.006;17.180;2023-05-29T00:01:24;5.90;;;3.80;;
47912;SDS011;33676;51.006;17.180;2023-05-29T00:03:52;7.30;;;4.20;;
47912;SDS011;33676;51.006;17.180;2023-05-29T00:06:21;4.70;;;4.10;;
47912;SDS011;33676;51.006;17.180;2023-05-29T00:08:50;6.70;;;4.30;;
47912;SDS011;33676;51.006;17.180;2023-05-29T00:11:18;4.50;;;4.00;;
47912;SDS011;33676;51.006;17.180;2023-05-29T00:13:47;5.60;;;4.00;;
47912;SDS011;33676;51.006;17.180;2023-05-29T00:16:15;5.00;;;3.50;;
47912;SDS011;33676;51.006;17.180;2023-05-29T00:18:46;10.30;;;5.00;;
47912;SDS011;33676;51.006;17.180;2023-05-29T00:21:15;8.80;;;4.80;;
47912;SDS011;33676;51.006;17.180;2023-05-29T00:23:44;4.40;;;4.00;;
47912;SDS011;33676;51.006;17.180;2023-05-29T00:26:13;5.70;;;4.00;;
47912;SDS011;33676;51.006;17.180;2023-05-29T00:28:51;6.40;;;5.30;;
47912;SDS011;33676;51.006;17.180;2023-05-29T00:31:19;6.30;;;4.80;;
47912;SDS011;33676;51.006;17.180;2023-05-29T00:33:48;5.50;;;4.80;;
47912;SDS011;33676;51.006;17.180;2023-05-29T00:36:16;5.60;;;3.80;;
47912;SDS011;33676;51.006;17.180;2023-05-29T00:38:45;5.40;;;4.40;;
47912;SDS011;33676;51.006;17.180;2023-05-29T00:41:14;7.60;;;4.30;;
47912;SDS011;33676;51.006;17.180;2023-05-29T00:43:44;4.40;;;3.80;;
47912;SDS011;33676;51.006;17.180;2023-05-29T00:46:14;5.40;;;4.50;;
47912;SDS011;33676;51.006;17.180;2023-05-29T00:48:44;4.60;;;4.20;;
47912;SDS011;33676;51.006;17.180;2023-05-29T00:51:14;8.20;;;4.40;;
47912;SDS011;33676;51.006;17.180;2023-05-29T00:53:44;7.10;;;4.40;;
47912;SDS011;33676;51.006;17.180;2023-05-29T00:56:13;8.40;;;4.10;;
47912;SDS011;33676;51.006;17.180;2023-05-29T00:58:42;14.90;;;4.40;;
47912;SDS011;33676;51.006;17.180;2023-05-29T01:01:11;5.40;;;5.00;;
47912;SDS011;33676;51.006;17.180;2023-05-29T01:03:41;5.40;;;4.30;;
47912;SDS011;33676;51.006;17.180;2023-05-29T01:06:10;5.50;;;3.90;;
47912;SDS011;33676;51.006;17.180;2023-05-29T01:08:39;5.10;;;4.00;;
47912;SDS011;33676;51.006;17.180;2023-05-29T01:11:17;5.90;;;4.60;;
47912;SDS011;33676;51.006;17.180;2023-05-29T01:14:01;6.40;;;4.90;;
47912;SDS011;33676;51.006;17.180;2023-05-29T01:22:13;6.00;;;4.20;;
47912;SDS011;33676;51.006;17.180;2023-05-29T01:29:53;9.00;;;6.70;;
47912;SDS011;33676;51.006;17.180;2023-05-29T01:32:23;7.90;;;6.40;;
47912;SDS011;33676;51.006;17.180;2023-05-29T01:34:54;6.00;;;4.40;;
47912;SDS011;33676;51.006;17.180;2023-05-29T01:37:23;7.10;;;4.50;;
47912;SDS011;33676;51.006;17.180;2023-05-29T01:39:51;5.60;;;3.80;;
47912;SDS011;33676;51.006;17.180;2023-05-29T01:42:20;7.60;;;5.60;;
47912;SDS011;33676;51.006;17.180;2023-05-29T01:44:49;6.60;;;5.10;;
47912;SDS011;33676;51.006;17.180;2023-05-29T01:47:18;7.00;;;4.60;;
47912;SDS011;33676;51.006;17.180;2023-05-29T01:49:47;9.00;;;6.30;;
47912;SDS011;33676;51.006;17.180;2023-05-29T01:52:18;6.80;;;5.60;;
47912;SDS011;33676;51.006;17.180;2023-05-29T01:54:47;9.30;;;6.80;;
47912;SDS011;33676;51.006;17.180;2023-05-29T01:57:15;10.30;;;8.50;;
47912;SDS011;33676;51.006;17.180;2023-05-29T01:59:44;10.80;;;5.40;;
47912;SDS011;33676;51.006;17.180;2023-05-29T02:02:13;10.50;;;8.30;;
47912;SDS011;33676;51.006;17.180;2023-05-29T02:04:42;5.40;;;4.60;;
47912;SDS011;33676;51.006;17.180;2023-05-29T02:07:10;9.40;;;6.00;;
47912;SDS011;33676;51.006;17.180;2023-05-29T02:09:40;7.90;;;5.80;;
47912;SDS011;33676;51.006;17.180;2023-05-29T02:12:08;6.60;;;5.80;;
47912;SDS011;33676;51.006;17.180;2023-05-29T02:14:37;7.60;;;5.50;;
47912;SDS011;33676;51.006;17.180;2023-05-29T02:17:08;7.30;;;4.40;;
47912;SDS011;33676;51.006;17.180;2023-05-29T02:19:37;5.40;;;4.50;;
47912;SDS011;33676;51.006;17.180;2023-05-29T02:22:07;7.80;;;5.50;;
47912;SDS011;33676;51.006;17.180;2023-05-29T02:24:35;6.40;;;5.30;;
47912;SDS011;33676;51.006;17.180;2023-05-29T02:27:04;5.10;;;4.50;;
47912;SDS011;33676;51.006;17.180;2023-05-29T02:29:32;5.00;;;4.50;;
47912;SDS011;33676;51.006;17.180;2023-05-29T02:32:01;6.70;;;6.00;;
47912;SDS011;33676;51.006;17.180;2023-05-29T02:34:30;9.00;;;6.20;;
47912;SDS011;33676;51.006;17.180;2023-05-29T02:36:58;7.40;;;4.90;;
47912;SDS011;33676;51.006;17.180;2023-05-29T02:39:27;6.20;;;4.90;;
47912;SDS011;33676;51.006;17.180;2023-05-29T02:41:55;6.00;;;4.90;;
47912;SDS011;33676;51.006;17.180;2023-05-29T02:44:24;7.60;;;4.30;;
47912;SDS011;33676;51.006;17.180;2023-05-29T02:46:52;6.50;;;4.60;;
47912;SDS011;33676;51.006;17.180;2023-05-29T02:49:21;6.70;;;4.80;;
47912;SDS011;33676;51.006;17.180;2023-05-29T02:51:49;8.20;;;4.80;;
47912;SDS011;33676;51.006;17.180;2023-05-29T02:54:18;10.70;;;5.50;;
47912;SDS011;33676;51.006;17.180;2023-05-29T02:56:46;5.90;;;4.90;;
47912;SDS011;33676;51.006;17.180;2023-05-29T02:59:14;7.00;;;5.30;;
47912;SDS011;33676;51.006;17.180;2023-05-29T03:01:43;11.40;;;6.00;;
47912;SDS011;33676;51.006;17.180;2023-05-29T03:04:11;9.50;;;5.70;;
47912;SDS011;33676;51.006;17.180;2023-05-29T03:06:40;8.10;;;6.00;;
47912;SDS011;33676;51.006;17.180;2023-05-29T03:09:09;7.60;;;5.30;;
47912;SDS011;33676;51.006;17.180;2023-05-29T03:11:37;5.00;;;4.50;;
47912;SDS011;33676;51.006;17.180;2023-05-29T03:14:06;6.90;;;4.90;;
47912;SDS011;33676;51.006;17.180;2023-05-29T03:16:34;5.40;;;4.60;;
47912;SDS011;33676;51.006;17.180;2023-05-29T03:19:04;4.70;;;4.30;;
47912;SDS011;33676;51.006;17.180;2023-05-29T03:21:33;5.90;;;4.60;;
47912;SDS011;33676;51.006;17.180;2023-05-29T03:24:02;7.20;;;5.90;;
47912;SDS011;33676;51.006;17.180;2023-05-29T03:26:30;6.80;;;4.20;;
47912;SDS011;33676;51.006;17.180;2023-05-29T03:28:59;5.50;;;5.00;;
47912;SDS011;33676;51.006;17.180;2023-05-29T03:31:27;5.40;;;4.90;;
47912;SDS011;33676;51.006;17.180;2023-05-29T03:33:56;6.60;;;3.80;;
47912;SDS011;33676;51.006;17.180;2023-05-29T03:36:24;8.90;;;4.50;;
47912;SDS011;33676;51.006;17.180;2023-05-29T03:38:53;6.80;;;4.70;;
47912;SDS011;33676;51.006;17.180;2023-05-29T03:41:21;5.40;;;4.10;;
47912;SDS011;33676;51.006;17.180;2023-05-29T03:46:58;9.60;;;4.60;;
47912;SDS011;33676;51.006;17.180;2023-05-29T03:49:27;28.30;;;7.20;;
47912;SDS011;33676;51.006;17.180;2023-05-29T03:51:55;12.00;;;5.80;;
47912;SDS011;33676;51.006;17.180;2023-05-29T03:54:24;10.80;;;5.40;;
47912;SDS011;33676;51.006;17.180;2023-05-29T03:56:52;10.00;;;5.70;;
47912;SDS011;33676;51.006;17.180;2023-05-29T03:59:21;12.10;;;5.70;;
47912;SDS011;33676;51.006;17.180;2023-05-29T04:01:49;6.20;;;4.60;;
47912;SDS011;33676;51.006;17.180;2023-05-29T04:04:18;6.40;;;4.50;;
47912;SDS011;33676;51.006;17.180;2023-05-29T04:06:46;5.50;;;4.80;;
47912;SDS011;33676;51.006;17.180;2023-05-29T04:09:15;8.60;;;4.90;;
47912;SDS011;33676;51.006;17.180;2023-05-29T04:11:43;7.30;;;4.70;;
47912;SDS011;33676;51.006;17.180;2023-05-29T04:14:13;10.20;;;4.80;;
47912;SDS011;33676;51.006;17.180;2023-05-29T04:16:41;9.40;;;4.80;;
47912;SDS011;33676;51.006;17.180;2023-05-29T04:19:09;5.70;;;4.50;;
47912;SDS011;33676;51.006;17.180;2023-05-29T04:21:38;6.60;;;5.80;;
47912;SDS011;33676;51.006;17.180;2023-05-29T04:24:06;7.50;;;5.20;;
47912;SDS011;33676;51.006;17.180;2023-05-29T04:26:35;8.70;;;5.80;;
47912;SDS011;33676;51.006;17.180;2023-05-29T04:29:03;7.30;;;6.20;;
47912;SDS011;33676;51.006;17.180;2023-05-29T04:31:32;11.20;;;5.60;;
47912;SDS011;33676;51.006;17.180;2023-05-29T04:34:02;6.90;;;5.30;;
47912;SDS011;33676;51.006;17.180;2023-05-29T04:36:32;8.70;;;6.80;;
47912;SDS011;33676;51.006;17.180;2023-05-29T04:39:01;7.30;;;6.10;;
47912;SDS011;33676;51.006;17.180;2023-05-29T04:41:30;8.50;;;5.60;;
47912;SDS011;33676;51.006;17.180;2023-05-29T04:43:59;6.90;;;6.10;;
47912;SDS011;33676;51.006;17.180;2023-05-29T04:46:28;7.20;;;6.00;;
47912;SDS011;33676;51.006;17.180;2023-05-29T04:48:57;11.30;;;6.10;;
47912;SDS011;33676;51.006;17.180;2023-05-29T04:51:25;8.50;;;6.60;;
47912;SDS011;33676;51.006;17.180;2023-05-29T04:53:56;7.70;;;6.40;;
47912;SDS011;33676;51.006;17.180;2023-05-29T04:56:25;7.70;;;6.10;;
47912;SDS011;33676;51.006;17.180;2023-05-29T04:58:54;12.50;;;6.70;;
47912;SDS011;33676;51.006;17.180;2023-05-29T05:01:23;9.60;;;6.60;;
47912;SDS011;33676;51.006;17.180;2023-05-29T05:03:52;9.00;;;6.40;;
47912;SDS011;33676;51.006;17.180;2023-05-29T05:06:24;8.30;;;5.70;;
47912;SDS011;33676;51.006;17.180;2023-05-29T05:08:54;9.20;;;5.60;;
47912;SDS011;33676;51.006;17.180;2023-05-29T05:11:23;9.10;;;6.30;;
47912;SDS011;33676;51.006;17.180;2023-05-29T05:13:52;7.70;;;5.10;;
47912;SDS011;33676;51.006;17.180;2023-05-29T05:16:20;4.60;;;4.20;;
47912;SDS011;33676;51.006;17.180;2023-05-29T05:18:49;5.20;;;4.10;;
47912;SDS011;33676;51.006;17.180;2023-05-29T05:21:17;4.80;;;4.30;;
47912;SDS011;33676;51.006;17.180;2023-05-29T05:23:46;5.00;;;4.40;;
47912;SDS011;33676;51.006;17.180;2023-05-29T05:26:26;5.30;;;4.20;;
47912;SDS011;33676;51.006;17.180;2023-05-29T05:28:55;8.20;;;4.70;;
47912;SDS011;33676;51.006;17.180;2023-05-29T05:31:23;4.60;;;4.30;;
47912;SDS011;33676;51.006;17.180;2023-05-29T05:33:52;6.60;;;4.10;;
47912;SDS011;33676;51.006;17.180;2023-05-29T05:36:21;4.50;;;4.00;;
47912;SDS011;33676;51.006;17.180;2023-05-29T05:38:49;6.50;;;5.00;;
47912;SDS011;33676;51.006;17.180;2023-05-29T05:41:17;4.80;;;4.20;;
47912;SDS011;33676;51.006;17.180;2023-05-29T05:43:46;5.00;;;4.10;;
47912;SDS011;33676;51.006;17.180;2023-05-29T05:46:14;7.30;;;4.90;;
47912;SDS011;33676;51.006;17.180;2023-05-29T05:48:44;4.70;;;4.30;;
47912;SDS011;33676;51.006;17.180;2023-05-29T05:51:13;7.10;;;4.90;;
47912;SDS011;33676;51.006;17.180;2023-05-29T05:53:42;4.50;;;4.10;;
47912;SDS011;33676;51.006;17.180;2023-05-29T05:56:10;11.40;;;5.00;;
47912;SDS011;33676;51.006;17.180;2023-05-29T05:58:39;4.40;;;4.00;;
47912;SDS011;33676;51.006;17.180;2023-05-29T06:01:07;5.50;;;4.20;;
47912;SDS011;33676;51.006;17.180;2023-05-29T06:03:36;8.40;;;4.70;;
47912;SDS011;33676;51.006;17.180;2023-05-29T06:06:06;8.60;;;4.70;;
47912;SDS011;33676;51.006;17.180;2023-05-29T06:08:35;8.90;;;4.60;;
47912;SDS011;33676;51.006;17.180;2023-05-29T06:11:04;6.10;;;4.30;;
47912;SDS011;33676;51.006;17.180;2023-05-29T06:13:32;7.80;;;4.50;;
47912;SDS011;33676;51.006;17.180;2023-05-29T06:16:01;7.20;;;4.30;;
47912;SDS011;33676;51.006;17.180;2023-05-29T06:18:30;7.20;;;4.80;;
47912;SDS011;33676;51.006;17.180;2023-05-29T06:20:58;6.30;;;4.90;;
47912;SDS011;33676;51.006;17.180;2023-05-29T06:23:27;5.30;;;4.80;;
47912;SDS011;33676;51.006;17.180;2023-05-29T06:25:56;6.10;;;5.60;;
47912;SDS011;33676;51.006;17.180;2023-05-29T06:28:24;7.10;;;5.10;;
47912;SDS011;33676;51.006;17.180;2023-05-29T06:30:53;8.00;;;4.70;;
47912;SDS011;33676;51.006;17.180;2023-05-29T06:33:22;5.50;;;4.10;;
47912;SDS011;33676;51.006;17.180;2023-05-29T06:35:52;10.00;;;4.30;;
47912;SDS011;33676;51.006;17.180;2023-05-29T06:38:20;4.60;;;4.10;;
47912;SDS011;33676;51.006;17.180;2023-05-29T06:40:49;6.60;;;3.50;;
47912;SDS011;33676;51.006;17.180;2023-05-29T06:43:17;7.20;;;4.80;;
47912;SDS011;33676;51.006;17.180;2023-05-29T06:45:46;3.80;;;3.40;;
47912;SDS011;33676;51.006;17.180;2023-05-29T06:48:14;5.60;;;3.70;;
47912;SDS011;33676;51.006;17.180;2023-05-29T06:50:43;5.10;;;3.70;;
47912;SDS011;33676;51.006;17.180;2023-05-29T06:53:11;5.40;;;3.80;;
47912;SDS011;33676;51.006;17.180;2023-05-29T06:55:41;4.20;;;3.90;;
47912;SDS011;33676;51.006;17.180;2023-05-29T06:58:12;5.60;;;3.50;;
47912;SDS011;33676;51.006;17.180;2023-05-29T07:00:40;7.80;;;3.40;;
47912;SDS011;33676;51.006;17.180;2023-05-29T07:03:09;6.20;;;3.90;;
47912;SDS011;33676;51.006;17.180;2023-05-29T07:05:38;6.80;;;4.20;;
47912;SDS011;33676;51.006;17.180;2023-05-29T07:08:06;4.40;;;4.00;;
47912;SDS011;33676;51.006;17.180;2023-05-29T07:10:36;4.80;;;3.90;;
47912;SDS011;33676;51.006;17.180;2023-05-29T07:13:05;5.40;;;4.30;;
47912;SDS011;33676;51.006;17.180;2023-05-29T07:15:34;4.20;;;3.80;;
47912;SDS011;33676;51.006;17.180;2023-05-29T07:18:07;8.30;;;4.40;;
47912;SDS011;33676;51.006;17.180;2023-05-29T07:20:36;3.60;;;3.30;;
47912;SDS011;33676;51.006;17.180;2023-05-29T07:23:06;3.50;;;3.30;;
47912;SDS011;33676;51.006;17.180;2023-05-29T07:25:34;4.70;;;2.90;;
47912;SDS011;33676;51.006;17.180;2023-05-29T07:28:04;5.80;;;3.20;;
47912;SDS011;33676;51.006;17.180;2023-05-29T07:30:49;6.90;;;4.70;;
47912;SDS011;33676;51.006;17.180;2023-05-29T07:33:21;3.80;;;3.10;;
47912;SDS011;33676;51.006;17.180;2023-05-29T07:35:49;4.40;;;3.80;;
47912;SDS011;33676;51.006;17.180;2023-05-29T07:38:18;3.20;;;2.90;;
47912;SDS011;33676;51.006;17.180;2023-05-29T07:40:46;6.90;;;3.70;;
47912;SDS011;33676;51.006;17.180;2023-05-29T07:43:15;5.10;;;4.50;;
47912;SDS011;33676;51.006;17.180;2023-05-29T07:45:43;5.10;;;2.90;;
47912;SDS011;33676;51.006;17.180;2023-05-29T07:48:12;6.70;;;3.90;;
47912;SDS011;33676;51.006;17.180;2023-05-29T07:50:40;2.70;;;2.40;;
47912;SDS011;33676;51.006;17.180;2023-05-29T07:53:09;5.70;;;3.50;;
47912;SDS011;33676;51.006;17.180;2023-05-29T07:55:38;2.60;;;2.20;;
47912;SDS011;33676;51.006;17.180;2023-05-29T07:58:06;3.30;;;2.90;;
47912;SDS011;33676;51.006;17.180;2023-05-29T08:00:35;6.00;;;2.70;;
47912;SDS011;33676;51.006;17.180;2023-05-29T08:03:04;5.00;;;2.50;;
47912;SDS011;33676;51.006;17.180;2023-05-29T08:05:33;4.80;;;2.60;;
47912;SDS011;33676;51.006;17.180;2023-05-29T08:08:02;2.60;;;2.30;;
47912;SDS011;33676;51.006;17.180;2023-05-29T08:10:30;6.60;;;2.40;;
47912;SDS011;33676;51.006;17.180;2023-05-29T08:12:58;2.00;;;1.90;;
47912;SDS011;33676;51.006;17.180;2023-05-29T08:15:27;4.20;;;2.30;;
47912;SDS011;33676;51.006;17.180;2023-05-29T08:17:56;2.90;;;2.60;;
47912;SDS011;33676;51.006;17.180;2023-05-29T08:20:25;2.70;;;2.10;;
47912;SDS011;33676;51.006;17.180;2023-05-29T08:22:53;5.40;;;3.00;;
47912;SDS011;33676;51.006;17.180;2023-05-29T08:25:22;3.30;;;2.50;;
47912;SDS011;33676;51.006;17.180;2023-05-29T08:27:50;3.10;;;2.20;;
47912;SDS011;33676;51.006;17.180;2023-05-29T08:30:18;2.50;;;2.10;;
47912;SDS011;33676;51.006;17.180;2023-05-29T08:32:47;1.60;;;1.50;;
47912;SDS011;33676;51.006;17.180;2023-05-29T08:35:17;5.40;;;2.40;;
47912;SDS011;33676;51.006;17.180;2023-05-29T08:37:45;2.60;;;2.00;;
47912;SDS011;33676;51.006;17.180;2023-05-29T08:40:14;3.50;;;1.90;;
47912;SDS011;33676;51.006;17.180;2023-05-29T08:43:32;2.90;;;1.70;;
47912;SDS011;33676;51.006;17.180;2023-05-29T08:45:44;3.80;;;2.10;;
47912;SDS011;33676;51.006;17.180;2023-05-29T08:48:13;1.90;;;1.80;;
47912;SDS011;33676;51.006;17.180;2023-05-29T08:50:45;3.30;;;2.10;;
47912;SDS011;33676;51.006;17.180;2023-05-29T08:53:18;4.00;;;1.40;;
47912;SDS011;33676;51.006;17.180;2023-05-29T08:55:48;3.90;;;2.30;;
47912;SDS011;33676;51.006;17.180;2023-05-29T08:58:20;10.30;;;2.80;;
47912;SDS011;33676;51.006;17.180;2023-05-29T09:00:49;1.90;;;1.80;;
47912;SDS011;33676;51.006;17.180;2023-05-29T09:03:19;3.50;;;2.10;;
47912;SDS011;33676;51.006;17.180;2023-05-29T09:05:50;4.70;;;2.00;;
47912;SDS011;33676;51.006;17.180;2023-05-29T09:08:19;2.30;;;1.80;;
47912;SDS011;33676;51.006;17.180;2023-05-29T09:10:47;5.50;;;1.60;;
47912;SDS011;33676;51.006;17.180;2023-05-29T09:13:16;3.50;;;3.30;;
47912;SDS011;33676;51.006;17.180;2023-05-29T09:15:46;4.60;;;1.90;;
47912;SDS011;33676;51.006;17.180;2023-05-29T09:18:16;2.20;;;2.10;;
47912;SDS011;33676;51.006;17.180;2023-05-29T09:20:45;5.60;;;2.50;;
47912;SDS011;33676;51.006;17.180;2023-05-29T09:23:14;8.60;;;2.80;;
47912;SDS011;33676;51.006;17.180;2023-05-29T09:25:42;2.70;;;1.90;;
47912;SDS011;33676;51.006;17.180;2023-05-29T09:28:12;3.70;;;2.00;;
47912;SDS011;33676;51.006;17.180;2023-05-29T09:30:46;3.90;;;2.00;;
47912;SDS011;33676;51.006;17.180;2023-05-29T09:33:15;3.00;;;2.20;;
47912;SDS011;33676;51.006;17.180;2023-05-29T09:35:46;5.20;;;1.90;;
47912;SDS011;33676;51.006;17.180;2023-05-29T09:38:18;3.60;;;2.10;;
47912;SDS011;33676;51.006;17.180;2023-05-29T09:40:50;2.00;;;1.90;;
47912;SDS011;33676;51.006;17.180;2023-05-29T09:43:18;3.10;;;2.80;;
47912;SDS011;33676;51.006;17.180;2023-05-29T09:45:48;3.10;;;2.60;;
47912;SDS011;33676;51.006;17.180;2023-05-29T09:48:23;2.50;;;2.30;;
47912;SDS011;33676;51.006;17.180;2023-05-29T09:53:24;3.50;;;2.30;;
47912;SDS011;33676;51.006;17.180;2023-05-29T09:55:55;5.70;;;2.20;;
47912;SDS011;33676;51.006;17.180;2023-05-29T09:58:24;2.20;;;2.00;;
47912;SDS011;33676;51.006;17.180;2023-05-29T10:00:53;2.20;;;2.10;;
47912;SDS011;33676;51.006;17.180;2023-05-29T10:03:22;5.10;;;2.70;;
47912;SDS011;33676;51.006;17.180;2023-05-29T10:18:55;3.00;;;2.60;;
47912;SDS011;33676;51.006;17.180;2023-05-29T10:21:27;2.80;;;2.60;;
47912;SDS011;33676;51.006;17.180;2023-05-29T10:23:56;6.00;;;2.90;;
47912;SDS011;33676;51.006;17.180;2023-05-29T10:26:26;5.80;;;2.10;;
47912;SDS011;33676;51.006;17.180;2023-05-29T10:37:52;6.90;;;2.80;;
47912;SDS011;33676;51.006;17.180;2023-05-29T10:40:26;4.70;;;2.80;;
47912;SDS011;33676;51.006;17.180;2023-05-29T10:42:55;3.10;;;2.90;;
47912;SDS011;33676;51.006;17.180;2023-05-29T10:53:23;4.90;;;2.20;;
47912;SDS011;33676;51.006;17.180;2023-05-29T10:55:54;3.10;;;2.70;;
47912;SDS011;33676;51.006;17.180;2023-05-29T10:58:24;3.40;;;2.10;;
47912;SDS011;33676;51.006;17.180;2023-05-29T11:01:03;3.10;;;2.80;;
47912;SDS011;33676;51.006;17.180;2023-05-29T11:03:32;2.80;;;2.20;;
47912;SDS011;33676;51.006;17.180;2023-05-29T11:06:05;3.30;;;2.90;;
47912;SDS011;33676;51.006;17.180;2023-05-29T11:14:56;3.40;;;2.40;;
47912;SDS011;33676;51.006;17.180;2023-05-29T11:20:07;3.00;;;2.90;;
47912;SDS011;33676;51.006;17.180;2023-05-29T11:25:37;3.10;;;2.40;;
47912;SDS011;33676;51.006;17.180;2023-05-29T11:28:08;2.90;;;2.60;;
47912;SDS011;33676;51.006;17.180;2023-05-29T11:30:48;2.70;;;2.50;;
47912;SDS011;33676;51.006;17.180;2023-05-29T11:33:24;3.10;;;2.70;;
47912;SDS011;33676;51.006;17.180;2023-05-29T11:35:58;2.50;;;2.30;;
47912;SDS011;33676;51.006;17.180;2023-05-29T11:38:28;2.50;;;2.30;;
47912;SDS011;33676;51.006;17.180;2023-05-29T11:40:57;4.50;;;4.10;;
47912;SDS011;33676;51.006;17.180;2023-05-29T11:43:30;2.80;;;2.70;;
47912;SDS011;33676;51.006;17.180;2023-05-29T11:46:13;4.90;;;2.30;;
47912;SDS011;33676;51.006;17.180;2023-05-29T11:48:47;2.50;;;2.30;;
47912;SDS011;33676;51.006;17.180;2023-05-29T11:51:17;3.80;;;2.50;;
47912;SDS011;33676;51.006;17.180;2023-05-29T11:53:57;3.60;;;3.20;;
47912;SDS011;33676;51.006;17.180;2023-05-29T11:56:29;2.90;;;2.10;;
47912;SDS011;33676;51.006;17.180;2023-05-29T11:58:58;2.80;;;2.40;;
47912;SDS011;33676;51.006;17.180;2023-05-29T12:01:28;5.00;;;2.60;;
47912;SDS011;33676;51.006;17.180;2023-05-29T12:03:57;5.10;;;2.90;;
47912;SDS011;33676;51.006;17.180;2023-05-29T12:06:35;3.80;;;2.60;;
47912;SDS011;33676;51.006;17.180;2023-05-29T12:09:07;26.60;;;2.50;;
47912;SDS011;33676;51.006;17.180;2023-05-29T12:11:35;3.40;;;2.80;;
47912;SDS011;33676;51.006;17.180;2023-05-29T12:14:04;2.50;;;2.40;;
47912;SDS011;33676;51.006;17.180;2023-05-29T12:16:44;8.20;;;2.50;;
47912;SDS011;33676;51.006;17.180;2023-05-29T12:19:13;5.50;;;2.50;;
47912;SDS011;33676;51.006;17.180;2023-05-29T12:21:43;2.70;;;2.40;;
47912;SDS011;33676;51.006;17.180;2023-05-29T12:24:12;2.20;;;2.00;;
47912;SDS011;33676;51.006;17.180;2023-05-29T12:26:43;5.10;;;4.70;;
47912;SDS011;33676;51.006;17.180;2023-05-29T12:29:12;2.60;;;2.40;;
47912;SDS011;33676;51.006;17.180;2023-05-29T12:31:41;3.70;;;2.50;;
47912;SDS011;33676;51.006;17.180;2023-05-29T12:34:14;2.30;;;2.20;;
47912;SDS011;33676;51.006;17.180;2023-05-29T12:36:44;2.40;;;2.20;;
47912;SDS011;33676;51.006;17.180;2023-05-29T12:39:14;2.50;;;2.30;;
47912;SDS011;33676;51.006;17.180;2023-05-29T12:41:45;3.60;;;2.60;;
47912;SDS011;33676;51.006;17.180;2023-05-29T12:44:14;2.90;;;2.70;;
47912;SDS011;33676;51.006;17.180;2023-05-29T12:46:43;3.40;;;2.90;;
47912;SDS011;33676;51.006;17.180;2023-05-29T12:49:16;4.30;;;3.10;;
47912;SDS011;33676;51.006;17.180;2023-05-29T12:51:49;3.90;;;2.60;;
47912;SDS011;33676;51.006;17.180;2023-05-29T12:54:26;2.20;;;2.20;;
47912;SDS011;33676;51.006;17.180;2023-05-29T12:56:54;2.40;;;2.30;;
47912;SDS011;33676;51.006;17.180;2023-05-29T12:59:24;3.50;;;3.00;;
47912;SDS011;33676;51.006;17.180;2023-05-29T13:01:54;5.70;;;2.70;;
47912;SDS011;33676;51.006;17.180;2023-05-29T13:04:29;3.10;;;2.30;;
47912;SDS011;33676;51.006;17.180;2023-05-29T13:07:00;2.30;;;2.10;;
47912;SDS011;33676;51.006;17.180;2023-05-29T13:09:32;5.40;;;5.00;;
47912;SDS011;33676;51.006;17.180;2023-05-29T13:12:02;3.70;;;3.50;;
47912;SDS011;33676;51.006;17.180;2023-05-29T13:14:31;3.00;;;2.50;;
47912;SDS011;33676;51.006;17.180;2023-05-29T13:17:01;3.20;;;2.80;;
47912;SDS011;33676;51.006;17.180;2023-05-29T13:19:31;4.00;;;3.70;;
47912;SDS011;33676;51.006;17.180;2023-05-29T13:22:03;10.20;;;3.70;;
47912;SDS011;33676;51.006;17.180;2023-05-29T13:24:31;5.90;;;3.10;;
47912;SDS011;33676;51.006;17.180;2023-05-29T13:27:00;3.00;;;2.30;;
47912;SDS011;33676;51.006;17.180;2023-05-29T13:29:31;4.60;;;2.40;;
47912;SDS011;33676;51.006;17.180;2023-05-29T13:32:00;3.40;;;2.60;;
47912;SDS011;33676;51.006;17.180;2023-05-29T13:34:30;2.80;;;2.50;;
47912;SDS011;33676;51.006;17.180;2023-05-29T13:36:59;5.40;;;3.20;;
47912;SDS011;33676;51.006;17.180;2023-05-29T13:39:28;2.20;;;2.10;;
47912;SDS011;33676;51.006;17.180;2023-05-29T13:41:57;5.90;;;5.30;;
47912;SDS011;33676;51.006;17.180;2023-05-29T13:44:26;3.00;;;2.80;;
47912;SDS011;33676;51.006;17.180;2023-05-29T13:46:55;4.90;;;2.60;;
47912;SDS011;33676;51.006;17.180;2023-05-29T13:49:25;3.80;;;3.20;;
47912;SDS011;33676;51.006;17.180;2023-05-29T13:51:55;3.50;;;3.20;;
47912;SDS011;33676;51.006;17.180;2023-05-29T13:54:23;2.30;;;2.20;;
47912;SDS011;33676;51.006;17.180;2023-05-29T13:56:52;3.10;;;2.90;;
47912;SDS011;33676;51.006;17.180;2023-05-29T13:59:21;17.20;;;3.90;;
47912;SDS011;33676;51.006;17.180;2023-05-29T14:01:49;3.00;;;2.70;;
47912;SDS011;33676;51.006;17.180;2023-05-29T14:04:18;6.00;;;2.90;;
47912;SDS011;33676;51.006;17.180;2023-05-29T14:06:47;2.80;;;2.50;;
47912;SDS011;33676;51.006;17.180;2023-05-29T14:09:16;2.40;;;2.20;;
47912;SDS011;33676;51.006;17.180;2023-05-29T14:11:48;2.50;;;1.90;;
47912;SDS011;33676;51.006;17.180;2023-05-29T14:14:16;2.70;;;2.30;;
47912;SDS011;33676;51.006;17.180;2023-05-29T14:16:45;2.80;;;2.60;;
47912;SDS011;33676;51.006;17.180;2023-05-29T14:19:16;2.30;;;2.20;;
47912;SDS011;33676;51.006;17.180;2023-05-29T14:21:45;2.90;;;2.70;;
47912;SDS011;33676;51.006;17.180;2023-05-29T14:24:13;3.00;;;2.50;;
47912;SDS011;33676;51.006;17.180;2023-05-29T14:27:02;7.40;;;3.60;;
47912;SDS011;33676;51.006;17.180;2023-05-29T14:29:30;9.00;;;2.40;;
47912;SDS011;33676;51.006;17.180;2023-05-29T14:31:59;2.60;;;2.40;;
47912;SDS011;33676;51.006;17.180;2023-05-29T14:34:27;3.50;;;2.90;;
47912;SDS011;33676;51.006;17.180;2023-05-29T14:36:56;5.70;;;3.00;;
47912;SDS011;33676;51.006;17.180;2023-05-29T14:39:24;2.60;;;2.30;;
47912;SDS011;33676;51.006;17.180;2023-05-29T14:41:53;3.10;;;2.50;;
47912;SDS011;33676;51.006;17.180;2023-05-29T14:44:21;4.10;;;3.10;;
47912;SDS011;33676;51.006;17.180;2023-05-29T14:46:50;3.80;;;2.70;;
47912;SDS011;33676;51.006;17.180;2023-05-29T14:49:19;3.00;;;2.80;;
47912;SDS011;33676;51.006;17.180;2023-05-29T14:51:51;2.80;;;2.60;;
47912;SDS011;33676;51.006;17.180;2023-05-29T14:54:20;3.10;;;2.80;;
47912;SDS011;33676;51.006;17.180;2023-05-29T14:56:48;2.50;;;2.10;;
47912;SDS011;33676;51.006;17.180;2023-05-29T14:59:17;2.50;;;2.40;;
47912;SDS011;33676;51.006;17.180;2023-05-29T15:01:46;3.50;;;3.10;;
47912;SDS011;33676;51.006;17.180;2023-05-29T15:04:15;3.00;;;2.80;;
47912;SDS011;33676;51.006;17.180;2023-05-29T15:06:44;6.20;;;2.50;;
47912;SDS011;33676;51.006;17.180;2023-05-29T15:09:26;2.20;;;2.10;;
47912;SDS011;33676;51.006;17.180;2023-05-29T15:11:58;4.30;;;2.70;;
47912;SDS011;33676;51.006;17.180;2023-05-29T15:14:27;2.80;;;2.50;;
47912;SDS011;33676;51.006;17.180;2023-05-29T15:16:56;6.70;;;2.80;;
47912;SDS011;33676;51.006;17.180;2023-05-29T15:19:24;4.30;;;3.00;;
47912;SDS011;33676;51.006;17.180;2023-05-29T15:21:53;2.70;;;2.60;;
47912;SDS011;33676;51.006;17.180;2023-05-29T15:24:26;2.40;;;2.30;;
47912;SDS011;33676;51.006;17.180;2023-05-29T15:26:55;6.20;;;3.00;;
47912;SDS011;33676;51.006;17.180;2023-05-29T15:29:35;3.20;;;3.10;;
47912;SDS011;33676;51.006;17.180;2023-05-29T15:32:04;2.90;;;2.70;;
47912;SDS011;33676;51.006;17.180;2023-05-29T15:34:33;4.20;;;2.90;;
47912;SDS011;33676;51.006;17.180;2023-05-29T15:37:04;2.70;;;2.60;;
47912;SDS011;33676;51.006;17.180;2023-05-29T15:39:34;8.20;;;3.50;;
47912;SDS011;33676;51.006;17.180;2023-05-29T15:42:03;3.50;;;3.10;;
47912;SDS011;33676;51.006;17.180;2023-05-29T15:44:31;3.90;;;3.30;;
47912;SDS011;33676;51.006;17.180;2023-05-29T15:47:00;2.80;;;2.60;;